createdAt,value
2023-01-27T00:01:52.999Z,-0.43
2023-01-27T00:04:36.096Z,-0.45
2023-01-27T00:07:11.451Z,-0.45
2023-01-27T00:09:47.209Z,-0.46
2023-01-27T00:12:49.517Z,-0.50
2023-01-27T00:15:27.491Z,-0.55
2023-01-27T00:18:02.981Z,-0.50
2023-01-27T00:20:54.200Z,-0.50
2023-01-27T00:23:49.168Z,-0.52
2023-01-27T00:26:23.602Z,-0.53
2023-01-27T00:29:06.845Z,-0.41
2023-01-27T00:32:01.473Z,-0.48
2023-01-27T00:34:41.287Z,-0.47
2023-01-27T00:37:21.742Z,-0.29
2023-01-27T00:39:51.659Z,-0.34
2023-01-27T00:42:34.145Z,-0.37
2023-01-27T00:45:25.039Z,-0.39
2023-01-27T00:47:55.247Z,-0.41
2023-01-27T00:50:48.957Z,-0.42
2023-01-27T00:53:41.656Z,-0.45
2023-01-27T00:56:22.791Z,-0.47
2023-01-27T00:58:58.926Z,-0.44
2023-01-27T01:01:41.799Z,-0.43
2023-01-27T01:04:21.328Z,-0.47
2023-01-27T01:06:56.438Z,-0.44
2023-01-27T01:09:34.313Z,-0.43
2023-01-27T01:12:09.689Z,-0.45
2023-01-27T01:14:39.623Z,-0.45
2023-01-27T01:17:20.589Z,-0.45
2023-01-27T01:19:54.950Z,-0.48
2023-01-27T01:22:30.067Z,-0.35
2023-01-27T01:25:16.041Z,-0.41
2023-01-27T01:27:53.943Z,-0.46
2023-01-27T01:30:31.636Z,-0.46
2023-01-27T01:33:06.665Z,-0.49
2023-01-27T01:35:50.502Z,-0.47
2023-01-27T01:38:25.599Z,-0.46
2023-01-27T01:41:08.408Z,-0.42
2023-01-27T01:43:51.420Z,-0.44
2023-01-27T01:46:32.055Z,-0.43
2023-01-27T01:49:06.865Z,-0.48
2023-01-27T01:51:52.513Z,-0.53
2023-01-27T01:54:30.723Z,-0.49
2023-01-27T01:57:16.195Z,-0.56
2023-01-27T02:00:00.138Z,-0.72
2023-01-27T02:02:42.082Z,-0.75
2023-01-27T02:05:30.611Z,-0.81
2023-01-27T02:08:39.366Z,-0.82
2023-01-27T02:11:25.451Z,-0.88
2023-01-27T02:14:08.514Z,-0.97
2023-01-27T02:16:46.818Z,-1.06
2023-01-27T02:19:37.028Z,-1.10
2023-01-27T02:22:09.902Z,-1.07
2023-01-27T02:24:48.098Z,-1.13
2023-01-27T02:27:21.031Z,-1.16
2023-01-27T02:29:59.398Z,-1.17
2023-01-27T02:32:45.649Z,-1.33
2023-01-27T02:35:28.986Z,-1.37
2023-01-27T02:38:04.677Z,-1.35
2023-01-27T02:40:46.081Z,-1.43
2023-01-27T02:43:24.657Z,-1.38
2023-01-27T02:46:03.502Z,-1.42
2023-01-27T02:48:39.541Z,-1.45
2023-01-27T02:51:14.678Z,-1.45
2023-01-27T02:53:52.039Z,-1.63
2023-01-27T02:56:28.021Z,-1.63
2023-01-27T02:59:02.998Z,-1.60
2023-01-27T03:01:47.168Z,-1.60
2023-01-27T03:04:23.543Z,-1.64
2023-01-27T03:07:04.653Z,-1.74
2023-01-27T03:09:39.476Z,-1.76
2023-01-27T03:12:21.156Z,-1.75
2023-01-27T03:15:21.143Z,-1.74
2023-01-27T03:18:12.333Z,-1.85
2023-01-27T03:20:49.625Z,-1.85
2023-01-27T03:23:27.965Z,-1.94
2023-01-27T03:26:09.502Z,-1.92
2023-01-27T03:29:07.726Z,-2.01
2023-01-27T03:31:55.231Z,-2.02
2023-01-27T03:34:26.319Z,-2.05
2023-01-27T03:37:28.173Z,-2.03
2023-01-27T03:40:27.335Z,-2.05
2023-01-27T03:43:23.847Z,-2.09
2023-01-27T03:46:15.172Z,-2.19
2023-01-27T03:49:01.190Z,-2.23
2023-01-27T03:51:35.776Z,-2.29
2023-01-27T03:54:17.103Z,-2.33
2023-01-27T03:56:52.198Z,-2.35
2023-01-27T03:59:36.236Z,-2.33
2023-01-27T04:02:27.597Z,-2.32
2023-01-27T04:05:18.311Z,-2.37
2023-01-27T04:07:56.152Z,-2.43
2023-01-27T04:10:59.633Z,-2.40
2023-01-27T04:13:37.693Z,-2.41
2023-01-27T04:16:18.280Z,-2.43
2023-01-27T04:18:55.777Z,-2.33
2023-01-27T04:21:31.231Z,-2.31
2023-01-27T04:24:17.439Z,-2.37
2023-01-27T04:26:55.729Z,-2.16
2023-01-27T04:29:29.742Z,-2.27
2023-01-27T04:32:10.766Z,-2.30
2023-01-27T04:34:57.365Z,-2.34
2023-01-27T04:37:38.280Z,-2.35
2023-01-27T04:40:16.464Z,-2.36
2023-01-27T04:42:52.972Z,-2.38
2023-01-27T04:45:26.741Z,-2.41
2023-01-27T04:48:07.700Z,-2.37
2023-01-27T04:50:46.636Z,-2.42
2023-01-27T04:53:24.566Z,-2.48
2023-01-27T04:56:08.903Z,-2.44
2023-01-27T04:58:41.724Z,-2.36
2023-01-27T05:01:16.530Z,-2.34
2023-01-27T05:03:57.221Z,-2.22
2023-01-27T05:06:33.587Z,-2.40
2023-01-27T05:09:12.115Z,-2.46
2023-01-27T05:11:50.161Z,-2.45
2023-01-27T05:14:24.091Z,-2.46
2023-01-27T05:16:57.785Z,-2.57
2023-01-27T05:19:38.573Z,-2.66
2023-01-27T05:22:16.952Z,-2.72
2023-01-27T05:24:49.399Z,-2.75
2023-01-27T05:27:32.683Z,-2.73
2023-01-27T05:30:07.864Z,-2.71
2023-01-27T05:32:42.390Z,-2.75
2023-01-27T05:35:24.350Z,-2.77
2023-01-27T05:38:04.799Z,-2.79
2023-01-27T05:40:39.757Z,-2.77
2023-01-27T05:43:12.331Z,-2.76
2023-01-27T05:45:44.697Z,-2.77
2023-01-27T05:48:24.888Z,-2.77
2023-01-27T05:51:02.153Z,-2.74
2023-01-27T05:53:38.651Z,-2.80
2023-01-27T05:56:19.626Z,-2.88
2023-01-27T05:58:55.863Z,-2.79
2023-01-27T06:01:41.634Z,-2.78
2023-01-27T06:04:19.915Z,-2.76
2023-01-27T06:06:58.016Z,-2.77
2023-01-27T06:09:40.314Z,-2.72
2023-01-27T06:12:18.061Z,-2.70
2023-01-27T06:14:55.555Z,-2.72
2023-01-27T06:17:32.058Z,-2.75
2023-01-27T06:20:16.252Z,-2.73
2023-01-27T06:22:59.143Z,-2.75
2023-01-27T06:25:43.675Z,-2.77
2023-01-27T06:28:28.606Z,-2.75
2023-01-27T06:31:18.258Z,-2.65
2023-01-27T06:33:59.684Z,-2.67
2023-01-27T06:36:34.754Z,-2.63
2023-01-27T06:39:12.884Z,-2.53
2023-01-27T06:41:44.716Z,-2.51
2023-01-27T06:44:19.805Z,-2.53
2023-01-27T06:47:00.307Z,-2.46
2023-01-27T06:49:40.291Z,-2.44
2023-01-27T06:52:29.636Z,-2.33
2023-01-27T06:55:05.015Z,-2.14
2023-01-27T06:57:51.979Z,-2.27
2023-01-27T07:00:42.047Z,-2.17
2023-01-27T07:03:30.644Z,-2.17
2023-01-27T07:06:14.175Z,-2.25
2023-01-27T07:08:54.836Z,-2.18
2023-01-27T07:11:33.237Z,-2.17
2023-01-27T07:14:06.171Z,-2.06
2023-01-27T07:16:41.013Z,-1.83
2023-01-27T07:19:21.633Z,-1.63
2023-01-27T07:22:01.964Z,-1.73
2023-01-27T07:24:43.044Z,-1.56
2023-01-27T07:27:26.258Z,-1.50
2023-01-27T07:30:10.103Z,-1.44
2023-01-27T07:32:51.633Z,-1.40
2023-01-27T07:35:29.602Z,-1.35
2023-01-27T07:38:07.675Z,-1.15
2023-01-27T07:40:42.795Z,-1.12
2023-01-27T07:43:22.648Z,-1.02
2023-01-27T07:46:06.017Z,-1.00
2023-01-27T07:48:46.577Z,-0.92
2023-01-27T07:51:24.635Z,-0.88
2023-01-27T07:54:03.059Z,-0.86
2023-01-27T07:56:38.205Z,-0.76
2023-01-27T07:59:21.032Z,-0.71
2023-01-27T08:01:59.184Z,-0.56
2023-01-27T08:04:52.094Z,-0.57
2023-01-27T08:07:39.793Z,-0.42
2023-01-27T08:10:18.855Z,-0.45
2023-01-27T08:12:54.080Z,-0.36
2023-01-27T08:15:35.024Z,-0.38
2023-01-27T08:18:12.239Z,-0.44
2023-01-27T08:20:53.056Z,-0.27
2023-01-27T08:23:28.621Z,-0.34
2023-01-27T08:26:06.253Z,-0.31
2023-01-27T08:28:47.167Z,-0.31
2023-01-27T08:31:25.886Z,-0.33
2023-01-27T08:34:03.938Z,-0.26
2023-01-27T08:36:44.169Z,-0.16
2023-01-27T08:39:21.674Z,-0.06
2023-01-27T08:41:54.355Z,-0.10
2023-01-27T08:44:31.557Z,-0.05
2023-01-27T08:47:10.019Z,-0.10
2023-01-27T08:49:45.011Z,-0.03
2023-01-27T08:52:22.439Z,0.01
2023-01-27T08:55:00.052Z,0.11
2023-01-27T08:57:38.662Z,0.07
2023-01-27T09:00:17.712Z,0.15
2023-01-27T09:02:54.843Z,0.30
2023-01-27T09:05:35.374Z,0.24
2023-01-27T09:08:10.858Z,0.28
2023-01-27T09:10:41.403Z,0.32
2023-01-27T09:13:22.428Z,0.42
2023-01-27T09:16:01.311Z,0.46
2023-01-27T09:18:44.446Z,0.68
2023-01-27T09:21:24.529Z,0.69
2023-01-27T09:24:03.577Z,0.76
2023-01-27T09:26:43.672Z,0.80
2023-01-27T09:29:16.579Z,0.85
2023-01-27T09:32:02.280Z,0.80
2023-01-27T09:34:41.735Z,0.75
2023-01-27T09:37:20.251Z,0.74
2023-01-27T09:40:03.796Z,0.72
2023-01-27T09:43:21.610Z,0.62
2023-01-27T09:46:08.946Z,0.56
2023-01-27T09:48:54.313Z,0.58
2023-01-27T09:52:02.373Z,0.65
2023-01-27T09:54:54.315Z,0.66
2023-01-27T09:57:32.472Z,0.61
2023-01-27T10:00:29.373Z,0.52
2023-01-27T10:03:16.569Z,0.56
2023-01-27T10:06:15.409Z,0.55
2023-01-27T10:09:11.928Z,0.38
2023-01-27T10:12:07.025Z,0.28
2023-01-27T10:15:00.480Z,0.37
2023-01-27T10:18:06.265Z,0.41
2023-01-27T10:21:01.193Z,0.15
2023-01-27T10:24:08.824Z,0.18
2023-01-27T10:26:52.203Z,0.10
2023-01-27T10:29:30.789Z,0.21
2023-01-27T10:32:10.980Z,0.11
2023-01-27T10:35:00.026Z,0.05
2023-01-27T10:37:35.200Z,-0.01
2023-01-27T10:40:40.909Z,-0.01
2023-01-27T10:43:37.840Z,-0.05
2023-01-27T10:46:35.531Z,-0.01
2023-01-27T10:49:26.149Z,-0.06
2023-01-27T10:52:10.072Z,-0.27
2023-01-27T10:54:53.917Z,-0.29
2023-01-27T10:57:47.915Z,-0.33
2023-01-27T11:03:40.038Z,-0.17
2023-01-27T11:06:33.614Z,-0.36
2023-01-27T11:09:43.849Z,-0.24
2023-01-27T11:12:19.780Z,-0.27
2023-01-27T11:14:59.567Z,-0.16
2023-01-27T11:17:48.083Z,-0.05
2023-01-27T11:20:35.308Z,-0.05
2023-01-27T11:23:54.476Z,-0.06
2023-01-27T11:26:59.069Z,-0.09
2023-01-27T11:29:48.863Z,0.06
2023-01-27T11:32:48.567Z,-0.19
2023-01-27T11:35:28.421Z,-0.31
2023-01-27T11:38:15.315Z,-0.30
2023-01-27T11:40:54.790Z,-0.14
2023-01-27T11:43:36.988Z,-0.01
2023-01-27T11:46:10.213Z,-0.16
2023-01-27T11:48:49.946Z,-0.10
2023-01-27T11:51:26.871Z,-0.23
2023-01-27T11:54:16.001Z,-0.40
2023-01-27T11:56:56.968Z,-0.26
2023-01-27T11:59:44.847Z,-0.17
2023-01-27T12:02:25.203Z,-0.12
2023-01-27T12:05:14.810Z,-0.12
2023-01-27T12:07:57.188Z,-0.16
2023-01-27T12:10:38.016Z,-0.22
2023-01-27T12:13:24.952Z,-0.24
2023-01-27T12:15:59.037Z,-0.13
2023-01-27T12:18:41.058Z,-0.16
2023-01-27T12:21:24.423Z,-0.29
2023-01-27T12:24:06.196Z,-0.22
2023-01-27T12:26:50.012Z,-0.15
2023-01-27T12:29:45.855Z,-0.05
2023-01-27T12:32:34.118Z,-0.30
2023-01-27T12:35:23.251Z,-0.23
2023-01-27T12:38:16.949Z,-0.19
2023-01-27T12:40:55.695Z,-0.14
2023-01-27T12:43:33.063Z,-0.03
2023-01-27T12:46:20.096Z,0.21
2023-01-27T12:49:06.958Z,0.20
2023-01-27T12:51:51.587Z,0.19
2023-01-27T12:54:37.328Z,0.35
2023-01-27T12:57:19.054Z,0.48
2023-01-27T12:59:52.921Z,0.39
2023-01-27T13:02:30.482Z,0.36
2023-01-27T13:05:20.030Z,0.29
2023-01-27T13:07:59.080Z,0.26
2023-01-27T13:10:36.378Z,0.05
2023-01-27T13:13:26.342Z,0.26
2023-01-27T13:16:05.933Z,0.22
2023-01-27T13:18:39.662Z,0.38
2023-01-27T13:21:23.805Z,0.35
2023-01-27T13:24:03.444Z,0.28
2023-01-27T13:26:41.323Z,0.15
2023-01-27T13:29:35.366Z,0.30
2023-01-27T13:32:25.085Z,0.28
2023-01-27T13:35:08.853Z,0.26
2023-01-27T13:37:43.622Z,0.38
2023-01-27T13:40:25.949Z,0.19
2023-01-27T13:43:24.263Z,0.42
2023-01-27T13:46:03.281Z,0.31
2023-01-27T13:48:46.212Z,0.22
2023-01-27T13:51:20.490Z,0.28
2023-01-27T13:54:15.661Z,0.22
2023-01-27T13:57:13.133Z,0.33
2023-01-27T14:00:15.442Z,0.16
2023-01-27T14:03:15.096Z,0.47
2023-01-27T14:06:13.805Z,0.41
2023-01-27T14:09:01.533Z,0.28
2023-01-27T14:11:49.906Z,0.11
2023-01-27T14:14:57.474Z,-0.05
2023-01-27T14:18:06.486Z,0.20
2023-01-27T14:21:02.703Z,0.37
2023-01-27T14:24:20.561Z,0.41
2023-01-27T14:27:17.007Z,0.47
2023-01-27T14:30:14.448Z,0.42
2023-01-27T14:33:05.071Z,0.33
2023-01-27T14:35:59.387Z,0.56
2023-01-27T14:38:51.430Z,0.59
2023-01-27T14:41:42.098Z,0.42
2023-01-27T14:44:38.394Z,0.30
2023-01-27T14:47:27.915Z,0.31
2023-01-27T14:50:09.880Z,0.26
2023-01-27T14:53:07.310Z,0.24
2023-01-27T14:56:02.251Z,0.10
2023-01-27T14:58:47.573Z,0.15
2023-01-27T15:02:11.796Z,0.08
2023-01-27T15:05:14.087Z,0.08
2023-01-27T15:08:02.236Z,0.15
2023-01-27T15:10:42.570Z,-0.01
2023-01-27T15:13:26.547Z,0.00
2023-01-27T15:16:04.881Z,0.04
2023-01-27T15:18:51.037Z,-0.02
2023-01-27T15:21:34.982Z,-0.08
2023-01-27T15:24:25.800Z,0.10
2023-01-27T15:27:06.177Z,0.05
2023-01-27T15:29:44.426Z,0.07
2023-01-27T15:32:34.192Z,0.01
2023-01-27T15:35:36.661Z,-0.03
2023-01-27T15:38:21.261Z,0.07
2023-01-27T15:41:07.241Z,-0.10
2023-01-27T15:43:44.277Z,-0.18
2023-01-27T15:46:55.881Z,0.03
2023-01-27T15:49:33.903Z,0.06
2023-01-27T15:52:56.069Z,0.07
2023-01-27T15:55:33.708Z,0.10
2023-01-27T15:58:23.329Z,0.06
2023-01-27T16:01:01.719Z,0.06
2023-01-27T16:03:37.990Z,-0.08
2023-01-27T16:06:16.847Z,-0.07
2023-01-27T16:08:48.834Z,0.09
2023-01-27T16:11:57.300Z,0.02
2023-01-27T16:14:41.455Z,0.02
2023-01-27T16:17:28.915Z,-0.03
2023-01-27T16:20:13.554Z,-0.10
2023-01-27T16:22:57.171Z,-0.12
2023-01-27T16:25:49.298Z,-0.18
2023-01-27T16:28:34.870Z,-0.20
2023-01-27T16:31:28.427Z,-0.20
2023-01-27T16:34:12.774Z,-0.05
2023-01-27T16:36:50.755Z,-0.09
2023-01-27T16:39:32.623Z,0.00
2023-01-27T16:42:12.112Z,-0.05
2023-01-27T16:44:55.069Z,-0.09
2023-01-27T16:47:41.379Z,-0.12
2023-01-27T16:50:48.356Z,-0.06
2023-01-27T16:53:33.859Z,-0.02
2023-01-27T16:56:21.696Z,-0.02
2023-01-27T16:59:04.614Z,0.00
2023-01-27T17:01:48.455Z,-0.07
2023-01-27T17:04:32.086Z,-0.05
2023-01-27T17:07:13.586Z,0.00
2023-01-27T17:10:05.944Z,-0.06
2023-01-27T17:12:53.335Z,0.00
2023-01-27T17:15:27.290Z,0.15
2023-01-27T17:17:57.046Z,0.12
2023-01-27T17:20:40.793Z,0.09
2023-01-27T17:23:34.241Z,0.20
2023-01-27T17:26:37.133Z,0.09
2023-01-27T17:29:18.428Z,0.06
2023-01-27T17:31:57.046Z,0.13
2023-01-27T17:34:33.031Z,0.02
2023-01-27T17:37:24.878Z,0.01
2023-01-27T17:40:15.395Z,0.05
2023-01-27T17:42:51.462Z,0.00
2023-01-27T17:45:37.999Z,0.07
2023-01-27T17:48:15.908Z,0.07
2023-01-27T17:51:00.884Z,0.11
2023-01-27T17:53:39.738Z,0.01
2023-01-27T17:56:39.582Z,-0.07
2023-01-27T17:59:26.835Z,0.01
2023-01-27T18:02:03.527Z,-0.04
2023-01-27T18:04:42.666Z,-0.05
2023-01-27T18:07:28.465Z,0.18
2023-01-27T18:09:58.563Z,0.19
2023-01-27T18:12:53.353Z,0.12
2023-01-27T18:16:14.237Z,0.09
2023-01-27T18:18:49.691Z,0.11
2023-01-27T18:21:35.615Z,0.10
2023-01-27T18:24:20.243Z,0.04
2023-01-27T18:26:55.801Z,0.10
2023-01-27T18:29:36.473Z,0.03
2023-01-27T18:32:24.619Z,0.06
2023-01-27T18:35:01.255Z,0.04
2023-01-27T18:37:55.377Z,0.09
2023-01-27T18:40:39.148Z,0.25
2023-01-27T18:43:18.537Z,0.20
2023-01-27T18:45:53.406Z,0.29
2023-01-27T18:48:39.880Z,0.07
2023-01-27T18:51:18.726Z,0.21
2023-01-27T18:53:53.869Z,0.19
2023-01-27T18:56:31.831Z,0.17
2023-01-27T18:59:09.162Z,0.15
2023-01-27T19:01:49.540Z,0.24
2023-01-27T19:04:29.816Z,0.16
2023-01-27T19:07:11.415Z,0.28
2023-01-27T19:09:53.252Z,0.20
2023-01-27T19:12:29.435Z,0.18
2023-01-27T19:15:07.675Z,0.22
2023-01-27T19:17:53.261Z,0.30
2023-01-27T19:20:33.107Z,0.20
2023-01-27T19:23:15.058Z,0.28
2023-01-27T19:25:54.056Z,0.29
2023-01-27T19:28:38.453Z,0.25
2023-01-27T19:31:22.024Z,0.26
2023-01-27T19:34:11.895Z,0.32
2023-01-27T19:36:50.432Z,0.22
2023-01-27T19:39:27.775Z,0.28
2023-01-27T19:42:10.761Z,0.34
2023-01-27T19:44:54.733Z,0.35
2023-01-27T19:47:29.583Z,0.41
2023-01-27T19:50:15.325Z,0.41
2023-01-27T19:52:51.213Z,0.38
2023-01-27T19:55:32.849Z,0.28
2023-01-27T19:58:07.756Z,0.29
2023-01-27T20:00:47.530Z,0.30
2023-01-27T20:03:25.920Z,0.40
2023-01-27T20:06:30.304Z,0.32
2023-01-27T20:09:08.189Z,0.37
2023-01-27T20:11:46.137Z,0.25
2023-01-27T20:14:26.123Z,0.28
2023-01-27T20:17:12.456Z,0.33
2023-01-27T20:19:49.807Z,0.43
2023-01-27T20:22:32.140Z,0.38
2023-01-27T20:25:13.526Z,0.29
2023-01-27T20:28:08.784Z,0.21
2023-01-27T20:30:50.579Z,0.34
2023-01-27T20:33:28.792Z,0.38
2023-01-27T20:36:04.510Z,0.43
2023-01-27T20:38:43.935Z,0.42
2023-01-27T20:41:21.917Z,0.51
2023-01-27T20:44:11.117Z,0.29
2023-01-27T20:46:46.027Z,0.30
2023-01-27T20:49:21.578Z,0.37
2023-01-27T20:51:56.926Z,0.51
2023-01-27T20:54:34.369Z,0.55
2023-01-27T20:57:19.946Z,0.47
2023-01-27T20:59:58.686Z,0.45
2023-01-27T21:02:37.339Z,0.47
2023-01-27T21:05:11.539Z,0.48
2023-01-27T21:07:48.954Z,0.56
2023-01-27T21:10:29.230Z,0.58
2023-01-27T21:13:04.175Z,0.60
2023-01-27T21:15:42.105Z,0.53
2023-01-27T21:18:22.915Z,0.55
2023-01-27T21:21:01.809Z,0.60
2023-01-27T21:23:33.367Z,0.57
2023-01-27T21:26:15.322Z,0.50
2023-01-27T21:28:55.759Z,0.49
2023-01-27T21:31:31.419Z,0.48
2023-01-27T21:34:10.548Z,0.48
2023-01-27T21:36:48.572Z,0.54
2023-01-27T21:39:23.934Z,0.55
2023-01-27T21:42:16.315Z,0.55
2023-01-27T21:45:09.988Z,0.36
2023-01-27T21:47:41.893Z,0.32
2023-01-27T21:50:23.206Z,0.24
2023-01-27T21:52:55.533Z,0.31
2023-01-27T21:55:33.758Z,0.33
2023-01-27T21:58:15.876Z,0.44
2023-01-27T22:00:53.925Z,0.45
2023-01-27T22:03:31.321Z,0.36
2023-01-27T22:06:15.802Z,0.38
2023-01-27T22:08:57.355Z,0.37
2023-01-27T22:11:35.163Z,0.39
2023-01-27T22:14:15.574Z,0.30
2023-01-27T22:17:04.032Z,0.35
2023-01-27T22:19:51.293Z,0.45
2023-01-27T22:22:37.647Z,0.51
2023-01-27T22:25:18.669Z,0.40
2023-01-27T22:27:48.764Z,0.42
2023-01-27T22:30:18.401Z,0.32
2023-01-27T22:32:58.854Z,0.25
2023-01-27T22:35:36.679Z,0.43
2023-01-27T22:38:18.953Z,0.33
2023-01-27T22:41:06.362Z,0.29
2023-01-27T22:43:47.944Z,0.36
2023-01-27T22:46:26.646Z,0.32
2023-01-27T22:49:05.366Z,0.30
2023-01-27T22:51:47.741Z,0.32
2023-01-27T22:54:26.743Z,0.31
2023-01-27T22:57:10.050Z,0.30
2023-01-27T22:59:44.856Z,0.37
2023-01-27T23:02:22.270Z,0.34
2023-01-27T23:04:57.314Z,0.23
2023-01-27T23:07:30.661Z,0.21
2023-01-27T23:10:14.043Z,0.45
2023-01-27T23:12:49.992Z,0.37
2023-01-27T23:15:27.877Z,0.31
2023-01-27T23:18:02.496Z,0.24
2023-01-27T23:20:40.103Z,0.34
2023-01-27T23:23:14.804Z,0.29
2023-01-27T23:26:10.423Z,0.19
2023-01-27T23:28:50.673Z,0.26
2023-01-27T23:31:30.123Z,0.27
2023-01-27T23:34:11.835Z,0.36
2023-01-27T23:36:49.431Z,0.34
2023-01-27T23:39:27.541Z,0.32
2023-01-27T23:42:12.439Z,0.33
2023-01-27T23:45:00.859Z,0.31
2023-01-27T23:47:40.867Z,0.41
2023-01-27T23:50:18.183Z,0.43
2023-01-27T23:52:55.689Z,0.31
2023-01-27T23:55:45.686Z,0.33
2023-01-27T23:58:17.487Z,0.42
